Flight Track Log - Related Links

Times and Time Zones

All times are in EDT time to prevent confusion due to time zone crossing. See the N539UA flight status page for this flight to view local times or setup timezone preferences in your user account.

Time Position Orientation Groundspeed Altitude Reporting Facility
EDT Latitude Longitude Course Direction KTS MPH feet Rate Location/Type
Tue 03:55:12 PM 37.6500 -122.3833 77° East 197 227 1,900  Level Northern Cal TRACON
Tue 03:56:12 PM 37.6833 -122.3167 58° Northeast 221 254 4,000 2,200 Climbing Northern Cal TRACON
Tue 03:57:00 PM 37.8367 -121.9733 54° Northeast  Level FlightAware Approximate
Tue 03:57:12 PM 37.7167 -122.2333 63° Northeast 279 321 6,300  Level Northern Cal TRACON
Tue 03:58:00 PM 37.9075 -121.8351 58° Northeast  Level FlightAware Approximate
Tue 03:58:12 PM 37.7500 -122.1500 63° Northeast 300 345 8,800  Level Northern Cal TRACON
Tue 03:59:00 PM 37.9449 -121.6812 78° East  Level FlightAware Approximate
Tue 04:00:00 PM 37.9722 -121.5198 77° East  Level FlightAware Approximate
Tue 04:00:23 PM 37.8189 -121.8981 71° East 370 426 12,900  Level Oakland Center
Tue 04:01:24 PM 37.8553 -121.7694 70° East 389 448 15,000 1,918 Climbing Oakland Center
Tue 04:02:25 PM 37.8939 -121.6331 70° East 408 470 16,800 1,366 Climbing Oakland Center
Tue 04:03:27 PM 37.9275 -121.4842 74° East 439 505 17,800 1,268 Climbing Oakland Center
Tue 04:04:28 PM 37.9564 -121.3286 77° East 468 539 19,400 1,721 Climbing Oakland Center
Tue 04:05:29 PM 37.9942 -121.1292 76° East 487 560 21,300 1,574 Climbing Oakland Center
Tue 04:06:30 PM 38.0264 -120.9592 76° East 498 573 22,600 1,317 Climbing Oakland Center
Tue 04:07:32 PM 38.0597 -120.7836 76° East 511 588 24,000 1,317 Climbing Oakland Center
Tue 04:08:33 PM 38.0933 -120.6047 77° East 522 601 25,300 1,230 Climbing Oakland Center
Tue 04:09:34 PM 38.1269 -120.4233 77° East 530 610 26,500 1,230 Climbing Oakland Center
Tue 04:10:35 PM 38.1619 -120.2375 76° East 540 621 27,800 1,377 Climbing Oakland Center
Tue 04:11:36 PM 38.1956 -120.0525 77° East 539 620 29,300 1,415 Climbing Oakland Center
Tue 04:12:38 PM 38.2300 -119.8692 76° East 536 617 30,700 1,366 Climbing Oakland Center
Tue 04:13:39 PM 38.2664 -119.6506 78° East 529 609 32,100 1,426 Climbing Oakland Center
Tue 04:14:40 PM 38.2994 -119.4678 77° East 530 610 33,600 1,230 Climbing Oakland Center
Tue 04:15:41 PM 38.3272 -119.3103 77° East 511 588 34,600 689 Climbing Oakland Center
Tue 04:16:42 PM 38.3581 -119.1308 78° East 518 596 35,000 197 Climbing Oakland Center
Tue 04:17:43 PM 38.3894 -118.9517 77° East 521 600 35,000  Level Oakland Center
Tue 04:18:44 PM 38.4264 -118.7356 78° East 522 601 35,000  Level Oakland Center
Tue 04:19:46 PM 38.4564 -118.5544 78° East 524 603 35,000  Level Oakland Center
Tue 04:20:47 PM 38.4872 -118.3739 78° East 525 604 35,000  Level Oakland Center
Tue 04:21:48 PM 38.5175 -118.1936 78° East 524 603 35,000  Level Oakland Center
Tue 04:22:49 PM 38.5456 -118.0225 78° East 519 597 35,000  Level Oakland Center
Tue 04:23:50 PM 38.5747 -117.8408 78° East 520 598 35,000  Level Oakland Center
Tue 04:24:51 PM 38.6036 -117.6594 78° East 518 596 35,000  Level Oakland Center
Tue 04:25:53 PM 38.6319 -117.4792 79° East 514 592 35,000  Level Oakland Center
Tue 04:26:54 PM 38.6600 -117.3003 79° East 512 589 35,000  Level Oakland Center
Tue 04:27:55 PM 38.6878 -117.1200 79° East 511 588 35,000  Level Oakland Center
Tue 04:28:56 PM 38.7214 -116.9025 79° East 514 592 35,000  Level Oakland Center
Tue 04:29:57 PM 38.7489 -116.7200 79° East 519 597 35,000  Level Oakland Center
Tue 04:31:16 PM 38.7814 -116.5008 79° East 520 598 35,000  Level Salt Lake Center
Tue 04:32:00 PM 38.8025 -116.3550 79° East 520 598 35,000  Level Oakland Center
Tue 04:33:01 PM 38.8289 -116.1742 79° East 515 593 35,000  Level Oakland Center
Tue 04:34:21 PM 38.8594 -115.9578 80° East 516 594 35,000  Level Salt Lake Center
Tue 04:35:22 PM 38.8914 -115.7378 79° East 521 600 35,000  Level Salt Lake Center
Tue 04:36:24 PM 38.9164 -115.5564 80° East 518 596 35,000  Level Salt Lake Center
Tue 04:37:26 PM 38.9419 -115.3806 79° East 522 601 35,000  Level Salt Lake Center
Tue 04:38:28 PM 38.9669 -115.1978 80° East 522 601 35,000  Level Salt Lake Center
Tue 04:39:29 PM 38.9911 -115.0161 80° East 519 597 35,000  Level Salt Lake Center
Tue 04:40:31 PM 39.0153 -114.8339 80° East 518 596 35,000  Level Salt Lake Center
Tue 04:41:33 PM 39.0467 -114.6128 80° East 520 598 35,000  Level Salt Lake Center
Tue 04:42:35 PM 39.0711 -114.4306 80° East 517 595 35,000  Level Salt Lake Center
Tue 04:43:36 PM 39.0947 -114.2464 81° East 519 597 35,000  Level Salt Lake Center
Tue 04:44:38 PM 39.1167 -114.0647 81° East 515 593 35,000  Level Salt Lake Center
Tue 04:45:40 PM 39.1403 -113.8797 81° East 521 600 35,000  Level Salt Lake Center
Tue 04:46:42 PM 39.1625 -113.6975 81° East 517 595 35,000  Level Salt Lake Center
Tue 04:47:44 PM 39.1839 -113.5161 81° East 513 590 35,000  Level Salt Lake Center
Tue 04:48:45 PM 39.2056 -113.3342 81° East 513 590 35,000  Level Salt Lake Center
Tue 04:49:47 PM 39.2331 -113.1150 81° East 515 593 35,000  Level Salt Lake Center
Tue 04:50:49 PM 39.2547 -112.9339 81° East 513 590 35,000  Level Salt Lake Center
Tue 04:51:51 PM 39.2753 -112.7519 82° East 511 588 35,000  Level Salt Lake Center
Tue 04:52:52 PM 39.2950 -112.5769 82° East 507 583 35,000  Level Salt Lake Center
Tue 04:53:54 PM 39.3242 -112.3992 78° East 509 586 35,000  Level Salt Lake Center
Tue 04:54:56 PM 39.3611 -112.2200 75° East 518 596 35,000 290 Level Salt Lake Center
Tue 04:55:58 PM 39.4033 -112.0083 75° East 511 588 35,600 774 Climbing Salt Lake Center
Tue 04:57:00 PM 39.4375 -111.8325 76° East 507 583 36,600 683 Climbing Salt Lake Center
Tue 04:58:01 PM 39.4706 -111.6581 76° East 503 579 37,000 195 Climbing Salt Lake Center
Tue 04:59:03 PM 39.5072 -111.4847 75° East 501 577 37,000  Level Salt Lake Center
Tue 05:00:05 PM 39.5397 -111.3081 77° East 505 581 37,000  Level Salt Lake Center
Tue 05:01:07 PM 39.5764 -111.1250 75° East 504 580 37,000  Level Salt Lake Center
Tue 05:02:09 PM 39.6128 -110.9283 76° East 504 580 37,000  Level Salt Lake Center
Tue 05:03:11 PM 39.6450 -110.7597 76° East 503 579 37,000  Level Salt Lake Center
Tue 05:04:13 PM 39.6817 -110.5650 76° East 499 574 37,000  Level Salt Lake Center
Tue 05:05:15 PM 39.7125 -110.3981 76° East 497 572 37,000  Level Salt Lake Center
Tue 05:06:17 PM 39.7469 -110.2036 77° East 494 568 37,000  Level Salt Lake Center
Tue 05:07:18 PM 39.7775 -110.0375 76° East 494 568 37,000  Level Salt Lake Center
Tue 05:08:15 PM 39.8061 -109.8706 77° East 492 566 37,000  Level Denver Center
Tue 05:10:18 PM 39.8700 -109.5108 77° East 492 566 37,000  Level Denver Center
Tue 05:11:20 PM 39.8997 -109.3447 77° East 490 564 37,000  Level Denver Center
Tue 05:12:22 PM 39.9336 -109.1492 77° East 492 566 37,000  Level Denver Center
Tue 05:13:24 PM 39.9617 -108.9808 78° East 493 567 37,000  Level Denver Center
Tue 05:14:26 PM 39.9900 -108.8111 78° East 495 570 37,000  Level Denver Center
Tue 05:15:27 PM 40.0233 -108.6131 78° East 496 571 37,000  Level Denver Center
Tue 05:16:29 PM 40.0506 -108.4450 78° East 494 568 37,000  Level Denver Center
Tue 05:17:31 PM 40.0825 -108.2492 78° East 492 566 37,000  Level Denver Center
Tue 05:18:33 PM 40.1094 -108.0842 78° East 485 558 37,000  Level Denver Center
Tue 05:19:35 PM 40.1367 -107.9186 78° East 486 559 37,000  Level Denver Center
Tue 05:20:37 PM 40.1669 -107.7236 78° East 488 562 37,000  Level Denver Center
Tue 05:21:38 PM 40.1931 -107.5586 78° East 485 558 37,000  Level Denver Center
Tue 05:22:40 PM 40.2233 -107.3650 78° East 486 559 37,000  Level Denver Center
Tue 05:23:42 PM 40.2489 -107.1992 79° East 485 558 37,000  Level Denver Center
Tue 05:24:44 PM 40.2806 -107.0042 78° East 490 564 37,000  Level Denver Center
Tue 05:25:46 PM 40.3067 -106.8264 79° East 485 558 37,000  Level Denver Center
Tue 05:26:47 PM 40.3322 -106.6511 79° East 486 559 37,000  Level Denver Center
Tue 05:27:49 PM 40.3586 -106.4772 79° East 486 559 37,000  Level Denver Center
Tue 05:28:51 PM 40.3831 -106.3103 79° East 487 560 37,000  Level Denver Center
Tue 05:29:53 PM 40.4103 -106.1181 79° East 487 560 37,000  Level Denver Center
Tue 05:30:54 PM 40.4356 -105.9444 79° East 487 560 37,000  Level Denver Center
Tue 05:31:56 PM 40.4600 -105.7672 80° East 493 567 37,000  Level Denver Center
Tue 05:32:58 PM 40.4839 -105.5936 80° East 486 559 37,000  Level Denver Center
Tue 05:34:00 PM 40.5083 -105.4194 79° East 486 559 37,000  Level Denver Center
Tue 05:35:01 PM 40.5358 -105.2103 80° East 485 558 37,000  Level Denver Center
Tue 05:36:03 PM 40.5594 -105.0331 80° East 488 562 37,000  Level Denver Center
Tue 05:37:05 PM 40.5831 -104.8586 80° East 485 558 37,000  Level Denver Center
Tue 05:38:07 PM 40.6058 -104.6814 80° East 489 563 37,000  Level Denver Center
Tue 05:39:09 PM 40.6292 -104.5022 80° East 494 568 37,000  Level Denver Center
Tue 05:40:10 PM 40.6506 -104.3264 81° East 489 563 37,000  Level Denver Center
Tue 05:41:12 PM 40.6931 -104.1569 72° East 487 560 37,000  Level Denver Center
Tue 05:42:14 PM 40.7369 -103.9925 71° East 473 544 37,000  Level Denver Center
Tue 05:43:16 PM 40.7889 -103.7867 72° East 492 566 37,000  Level Denver Center
Tue 05:44:17 PM 40.8156 -103.6056 79° East 499 574 37,000  Level Denver Center
Tue 05:45:19 PM 40.8389 -103.4225 80° East 503 579 37,000  Level Denver Center
Tue 05:46:21 PM 40.8622 -103.2417 80° East 502 578 37,000  Level Denver Center
Tue 05:47:23 PM 40.8847 -103.0608 81° East 500 575 37,000  Level Denver Center
Tue 05:48:25 PM 40.9092 -102.8547 81° East 497 572 37,000  Level Denver Center
Tue 05:49:26 PM 40.9328 -102.6847 80° East 494 568 37,000  Level Denver Center
Tue 05:50:28 PM 40.9522 -102.5150 81° East 489 563 37,000  Level Denver Center
Tue 05:51:30 PM 40.9744 -102.3161 82° East 488 562 37,000  Level Denver Center
Tue 05:52:32 PM 40.9956 -102.1481 80° East 485 558 37,000  Level Denver Center
Tue 05:53:34 PM 41.0178 -101.9500 81° East 487 560 37,000  Level Denver Center
Tue 05:54:36 PM 41.0381 -101.7814 81° East 486 559 37,000  Level Denver Center
Tue 05:55:49 PM 41.0611 -101.5847 81° East 484 557 37,000  Level Denver Center
Tue 05:56:52 PM 41.0819 -101.3903 82° East 478 550 37,000  Level Denver Center
Tue 05:57:54 PM 41.1031 -101.1947 82° East 478 550 37,000  Level Denver Center
Tue 05:58:55 PM 41.1217 -101.0275 82° East 477 549 37,000  Level Denver Center
Tue 05:59:57 PM 41.1422 -100.8294 82° East 481 554 37,000  Level Denver Center
Tue 06:00:59 PM 41.1603 -100.6592 82° East 481 554 37,000  Level Denver Center
Tue 06:02:01 PM 41.1778 -100.4917 82° East 477 549 37,000  Level Denver Center
Tue 06:03:03 PM 41.1981 -100.2953 82° East 478 550 37,000  Level Denver Center
Tue 06:04:05 PM 41.2147 -100.1278 82° East 478 550 37,000  Level Denver Center
Tue 06:05:07 PM 41.2333 -99.9336 83° East 475 547 37,000  Level Denver Center
Tue 06:06:09 PM 41.2503 -99.7667 82° East 475 547 37,000  Level Denver Center
Tue 06:07:11 PM 41.2683 -99.5731 83° East 474 545 37,000  Level Denver Center
Tue 06:08:13 PM 41.2833 -99.4036 83° East 474 545 37,000  Level Denver Center
Tue 06:09:15 PM 41.2994 -99.2294 83° East 473 544 37,000  Level Denver Center
Tue 06:10:17 PM 41.3158 -99.0553 83° East 472 543 37,000  Level Denver Center
Tue 06:11:19 PM 41.3325 -98.8783 83° East 472 543 37,000  Level Denver Center
Tue 06:12:21 PM 41.3472 -98.6994 84° East 475 547 37,000  Level Denver Center
Tue 06:13:23 PM 41.3622 -98.5222 84° East 476 548 37,000  Level Denver Center
Tue 06:15:00 PM 41.3811 -98.2767 84° East 478 550 37,000  Level Minneapolis Center
Tue 06:16:02 PM 41.3856 -98.0525 88° East 475 547 37,000  Level Minneapolis Center
Tue 06:17:04 PM 41.3908 -97.8767 88° East 476 548 37,000  Level Minneapolis Center
Tue 06:18:06 PM 41.3961 -97.7003 88° East 477 549 37,000  Level Minneapolis Center
Tue 06:19:20 PM 41.4014 -97.5242 88° East 477 549 37,000  Level Minneapolis Center
Tue 06:20:22 PM 41.4081 -97.2781 88° East 476 548 37,000  Level Minneapolis Center
Tue 06:21:24 PM 41.4108 -97.1031 89° East 474 545 37,000  Level Minneapolis Center
Tue 06:22:26 PM 41.4144 -96.9281 88° East 474 545 37,000  Level Minneapolis Center
Tue 06:23:28 PM 41.4189 -96.7514 88° East 476 548 37,000  Level Minneapolis Center
Tue 06:24:30 PM 41.4219 -96.5753 89° East 476 548 37,000  Level Minneapolis Center
Tue 06:25:32 PM 41.4250 -96.4342 88° East 476 548 37,000  Level Minneapolis Center
Tue 06:26:34 PM 41.4267 -96.1956 89° East 482 555 37,000  Level Minneapolis Center
Tue 06:27:36 PM 41.4292 -96.0189 89° East 479 551 37,000  Level Minneapolis Center
Tue 06:28:38 PM 41.4300 -95.8411 90° East 479 551 37,000  Level Minneapolis Center
Tue 06:29:40 PM 41.4336 -95.6392 89° East 480 552 37,000  Level Minneapolis Center
Tue 06:30:42 PM 41.4342 -95.4589 90° East 480 552 37,000  Level Minneapolis Center
Tue 06:31:44 PM 41.4364 -95.2806 89° East 481 554 37,000  Level Minneapolis Center
Tue 06:32:46 PM 41.4386 -95.1025 89° East 482 555 37,000  Level Minneapolis Center
Tue 06:33:48 PM 41.4383 -94.9256 90° East 479 551 37,000  Level Minneapolis Center
Tue 06:34:50 PM 41.4392 -94.7469 90° East 482 555 37,000  Level Minneapolis Center
Tue 06:35:52 PM 41.4400 -94.5322 90° East 483 556 37,000  Level Minneapolis Center
Tue 06:36:54 PM 41.4394 -94.3544 90° East 481 554 37,000  Level Minneapolis Center
Tue 06:37:56 PM 41.4375 -94.2097 91° East 485 558 37,000  Level Minneapolis Center
Tue 06:38:58 PM 41.4372 -94.0086 90° East 486 559 37,000  Level Minneapolis Center
Tue 06:40:00 PM 41.4375 -93.7933 90° East 488 562 37,000  Level Minneapolis Center
Tue 06:41:02 PM 41.4400 -93.6142 89° East 487 560 37,000  Level Minneapolis Center
Tue 06:42:05 PM 41.4589 -93.4356 82° East 488 562 37,000  Level Minneapolis Center
Tue 06:43:42 PM 41.4850 -93.1500 83° East 485 558 37,000  Level Chicago Center
Tue 06:44:44 PM 41.5017 -92.9728 83° East 485 558 37,000  Level Chicago Center
Tue 06:45:46 PM 41.5175 -92.7972 83° East 482 555 37,000  Level Chicago Center
Tue 06:46:48 PM 41.5350 -92.6047 83° East 481 554 37,000  Level Chicago Center
Tue 06:47:51 PM 41.5503 -92.4319 83° East 478 550 37,000  Level Chicago Center
Tue 06:48:53 PM 41.5672 -92.2253 84° East 474 545 37,000  Level Chicago Center
Tue 06:49:55 PM 41.5828 -92.0506 83° East 479 551 37,000  Level Chicago Center
Tue 06:50:57 PM 41.5967 -91.8772 84° East 476 548 37,000 -532 Level Chicago Center
Tue 06:51:59 PM 41.6117 -91.7011 83° East 482 555 35,900 -968 Descending Chicago Center
Tue 06:53:01 PM 41.6292 -91.4856 84° East 493 567 35,000 -435 Descending Chicago Center
Tue 06:54:03 PM 41.6433 -91.3042 84° East 496 571 35,000  Level Chicago Center
Tue 06:55:05 PM 41.6581 -91.1214 84° East 501 577 35,000  Level Chicago Center
Tue 06:56:07 PM 41.6719 -90.9369 84° East 506 582 35,000  Level Chicago Center
Tue 06:57:09 PM 41.6850 -90.7542 84° East 502 578 35,000  Level Chicago Center
Tue 06:58:12 PM 41.7011 -90.5339 84° East 505 581 35,000  Level Chicago Center
Tue 06:59:14 PM 41.7150 -90.3453 84° East 508 585 35,000  Level Chicago Center
Tue 07:00:16 PM 41.7269 -90.1586 85° East 504 580 35,000  Level Chicago Center
Tue 07:01:18 PM 41.7394 -89.9714 85° East 504 580 35,000  Level Chicago Center
Tue 07:02:20 PM 41.7519 -89.7831 85° East 505 581 35,000  Level Chicago Center
Tue 07:03:22 PM 41.7661 -89.5589 85° East 503 579 35,000  Level Chicago Center
Tue 07:04:24 PM 41.7758 -89.3942 85° East 503 579 35,000  Level Chicago Center
Tue 07:05:26 PM 41.7894 -89.1722 85° East 503 579 35,000  Level Chicago Center
Tue 07:06:28 PM 41.7997 -88.9889 86° East 497 572 35,000  Level Chicago Center
Tue 07:07:30 PM 41.8097 -88.8036 86° East 503 579 35,000  Level Chicago Center
Tue 07:08:33 PM 41.8200 -88.6164 86° East 506 582 35,000  Level Chicago Center
Tue 07:09:35 PM 41.8292 -88.4300 86° East 505 581 35,000 484 Level Chicago Center
Tue 07:10:37 PM 41.8397 -88.2419 86° East 506 582 36,000 968 Climbing Chicago Center
Tue 07:11:39 PM 41.8508 -88.0136 86° East 508 585 37,000 484 Climbing Chicago Center
Tue 07:12:41 PM 41.8597 -87.8228 86° East 511 588 37,000  Level Chicago Center
Tue 07:13:43 PM 41.8672 -87.6322 87° East 511 588 37,000  Level Chicago Center
Tue 07:14:45 PM 41.8772 -87.4406 86° East 515 593 37,000  Level Chicago Center
Tue 07:15:47 PM 41.8853 -87.2472 87° East 519 597 37,000  Level Chicago Center
Tue 07:16:49 PM 41.8919 -87.0522 87° East 526 605 37,000  Level Chicago Center
Tue 07:17:52 PM 41.9014 -86.8175 87° East 528 608 37,000  Level Chicago Center
Tue 07:18:54 PM 41.9081 -86.6306 87° East 533 613 37,000  Level Chicago Center
Tue 07:19:56 PM 41.9153 -86.4319 87° East 534 615 37,000  Level Chicago Center
Tue 07:20:58 PM 41.9225 -86.2339 87° East 532 612 37,000  Level Chicago Center
Tue 07:22:00 PM 41.9289 -86.0344 87° East 535 616 37,000  Level Chicago Center
Tue 07:23:02 PM 41.9364 -85.7950 88° East 533 613 37,000  Level Chicago Center
Tue 07:24:04 PM 41.9428 -85.5936 87° East 535 616 37,000  Level Chicago Center
Tue 07:25:06 PM 41.9475 -85.3903 88° East 538 619 37,000  Level Chicago Center
Tue 07:26:08 PM 41.9525 -85.1900 88° East 531 611 37,000  Level Chicago Center
Tue 07:27:11 PM 41.9511 -84.9886 90° East 534 615 37,000  Level Chicago Center
Tue 07:28:13 PM 41.9503 -84.7828 90° East 550 633 37,000  Level Chicago Center
Tue 07:29:15 PM 41.9475 -84.5822 91° East 540 621 37,000  Level Chicago Center
Tue 07:30:17 PM 41.9458 -84.3400 90° East 539 620 37,000  Level Chicago Center
Tue 07:31:19 PM 41.9436 -84.1372 91° East 543 625 37,000  Level Chicago Center
Tue 07:32:11 PM 41.9394 -83.9611 92° East 536 617 37,000  Level Cleveland Center
Tue 07:33:11 PM 41.9369 -83.7569 91° East 536 617 37,000  Level Cleveland Center
Tue 07:34:11 PM 41.9328 -83.5978 92° East 536 617 37,000  Level Cleveland Center
Tue 07:35:11 PM 41.9328 -83.3550 90° East 536 617 37,000  Level Cleveland Center
Tue 07:36:11 PM 41.9311 -83.1511 91° East 542 624 37,000  Level Cleveland Center
Tue 07:37:11 PM 41.9294 -82.9472 91° East 542 624 37,000  Level Cleveland Center
Tue 07:38:11 PM 41.9272 -82.7433 91° East 542 624 37,000  Level Cleveland Center
Tue 07:39:11 PM 41.9244 -82.5450 91° East 536 617 37,000  Level Cleveland Center
Tue 07:40:11 PM 41.9233 -82.3469 90° East 536 617 37,000  Level Cleveland Center
Tue 07:41:11 PM 41.9200 -82.1486 91° East 536 617 37,000  Level Cleveland Center
Tue 07:42:11 PM 41.9203 -81.9672 90° East 536 617 37,000  Level Cleveland Center
Tue 07:43:11 PM 41.9100 -81.7661 94° East 536 617 37,000  Level Cleveland Center
Tue 07:44:11 PM 41.8931 -81.5678 96° East 542 624 37,000  Level Cleveland Center
Tue 07:45:11 PM 41.8739 -81.3500 97° East 542 624 37,000  Level Cleveland Center
Tue 07:46:11 PM 41.8544 -81.1464 97° East 542 624 37,000  Level Cleveland Center
Tue 07:47:11 PM 41.8364 -80.9456 97° East 542 624 37,000  Level Cleveland Center
Tue 07:48:11 PM 41.8161 -80.7447 98° East 542 624 37,000  Level Cleveland Center
Tue 07:49:11 PM 41.7975 -80.5469 97° East 542 624 37,000  Level Cleveland Center
Tue 07:50:11 PM 41.7764 -80.3436 98° East 542 624 37,000  Level Cleveland Center
Tue 07:51:11 PM 41.7569 -80.1461 97° East 542 624 37,000  Level Cleveland Center
Tue 07:52:11 PM 41.7394 -79.9681 97° East 542 624 37,000  Level Cleveland Center
Tue 07:53:11 PM 41.7175 -79.7708 98° East 535 616 37,000  Level Cleveland Center
Tue 07:54:11 PM 41.6947 -79.5542 98° East 535 616 37,000  Level Cleveland Center
Tue 07:55:11 PM 41.6742 -79.3544 98° East 541 623 37,000  Level Cleveland Center
Tue 07:56:11 PM 41.6511 -79.1575 99° East 541 623 37,000  Level Cleveland Center
Tue 07:57:11 PM 41.6297 -78.9608 98° East 541 623 37,000  Level Cleveland Center
Tue 07:58:11 PM 41.6058 -78.7642 99° East 541 623 37,000  Level Cleveland Center
Tue 07:59:11 PM 41.5858 -78.5678 98° East 541 623 37,000 -100 Level Cleveland Center
Tue 08:00:11 PM 41.5614 -78.3742 100° East 541 623 36,800 -1,400 Descending Cleveland Center
Tue 08:01:11 PM 41.5367 -78.1808 100° East 536 617 34,200 -2,489 Descending Cleveland Center
Tue 08:02:26 PM 41.5089 -77.9433 99° East 538 619 31,200 -1,412 Descending New York Center
Tue 08:03:27 PM 41.4831 -77.7494 100° East 533 613 31,000 -99 Descending New York Center
Tue 08:04:27 PM 41.4544 -77.5583 101° East 528 608 31,000 -763 Level New York Center
Tue 08:05:25 PM 41.4258 -77.3617 101° East 528 608 29,500 -1,008 Descending New York Center
Tue 08:06:26 PM 41.3950 -77.1678 102° East 536 617 29,000 -250 Descending New York Center
Tue 08:07:25 PM 41.3658 -76.9714 101° East 536 617 29,000  Level New York Center
Tue 08:08:27 PM 41.3339 -76.7806 103° East 531 611 29,000 -590 Level New York Center
Tue 08:09:27 PM 41.2889 -76.5969 108° East 531 611 27,800 -2,186 Descending New York Center
Tue 08:10:25 PM 41.2372 -76.4133 110° East 531 611 24,700 -2,831 Descending New York Center
Tue 08:12:25 PM 41.1506 -76.0808 109° East 504 580 19,400 -2,315 Descending New York Center
Tue 08:14:26 PM 41.0644 -75.7631 110° East 455 524 15,400 -1,944 Descending New York Center
Tue 08:15:24 PM 41.0244 -75.6200 110° East 430 495 13,600 -1,488 Descending New York Center
Tue 08:16:27 PM 40.9847 -75.4742 110° East 393 452 12,400 -1,388 Descending New York Center
Tue 08:17:25 PM 40.9497 -75.3564 111° Southeast 380 437 10,800 -1,271 Descending New York Center
Tue 08:18:25 PM 40.9131 -75.2247 110° East 358 412 9,900 -885 Descending New York Center
Tue 08:19:27 PM 40.8836 -75.1186 110° East 326 375 9,000 -1,050 Descending New York Center
Tue 08:20:25 PM 40.8539 -75.0178 111° Southeast 295 339 7,800 -1,008 Descending New York Center
Tue 08:21:26 PM 40.8300 -74.9286 109° East 289 333 7,000 -400 Descending New York Center
Tue 08:22:25 PM 40.8394 -74.8414 82° East 250 288 7,000  Level New York Center
Tue 08:23:25 PM 40.8758 -74.7503 62° Northeast 243 280 7,000  Level New York Center
Tue 08:24:25 PM 40.9172 -74.6950 45° Northeast 243 280 7,000  Level New York Center
Tue 08:25:26 PM 40.9469 -74.6117 65° Northeast 217 250 7,000 -124 Level New York Center
Tue 08:26:02 PM 40.9167 -74.5833 145° Southeast 270 311 6,800 -625 Descending New York TRACON
Tue 08:27:02 PM 40.8333 -74.6000 189° South 268 308 6,000 -400 Descending New York TRACON
Tue 08:28:02 PM 40.7667 -74.6000 180° South 262 302 6,000 -211 Level New York TRACON
Tue 08:28:56 PM 40.7000 -74.6000 180° South 264 304 5,600 -526 Descending New York TRACON
Tue 08:29:56 PM 40.6167 -74.5833 171° South 259 298 5,000 -300 Descending New York TRACON
Tue 08:30:56 PM 40.5500 -74.5667 169° South 249 287 5,000 -200 Level New York TRACON
Tue 08:31:56 PM 40.5000 -74.5167 143° Southeast 226 260 4,600 -500 Descending New York TRACON
Tue 08:32:56 PM 40.4500 -74.4833 153° Southeast 225 259 4,000 -714 Descending New York TRACON
Tue 08:34:02 PM 40.4333 -74.4167 108° East 185 213 3,100 -476 Descending New York TRACON
Tue 08:35:02 PM 40.4500 -74.3500 72° East 187 215 3,000  Descending New York TRACON
Tue 08:35:56 PM 40.4833 -74.3000 49° Northeast 187 215 3,100 105 Climbing New York TRACON
Tue 08:36:56 PM 40.5167 -74.2667 37° Northeast 178 205 3,200 -350 Climbing New York TRACON
Tue 08:37:56 PM 40.5667 -74.2500 14° North 191 220 2,400 -850 Descending New York TRACON
Tue 08:38:56 PM 40.6167 -74.2167 27° Northeast 176 203 1,500 -850 Descending New York TRACON
Tue 08:39:56 PM 40.6500 -74.1833 37° Northeast 132 152 700 -800 Descending New York TRACON

Login

Don't have an account? Register now (free) for customized features, flight alerts, and more!